createdAt,value
2018-01-11T00:00:54.026Z,27.67
2018-01-11T00:03:21.415Z,29.20
2018-01-11T00:05:48.838Z,30.67
2018-01-11T00:08:16.290Z,25.83
2018-01-11T00:10:43.686Z,29.13
2018-01-11T00:13:11.083Z,29.93
2018-01-11T00:15:38.482Z,29.10
2018-01-11T00:18:05.885Z,31.57
2018-01-11T00:20:33.283Z,33.33
2018-01-11T00:23:00.685Z,29.43
2018-01-11T00:25:28.089Z,29.37
2018-01-11T00:27:55.472Z,27.00
2018-01-11T00:30:22.891Z,30.25
2018-01-11T00:32:50.304Z,36.30
2018-01-11T00:35:17.710Z,44.03
2018-01-11T00:37:45.107Z,44.00
2018-01-11T00:40:12.507Z,38.40
2018-01-11T00:42:39.908Z,33.70
2018-01-11T00:45:07.303Z,30.40
2018-01-11T00:47:34.707Z,35.20
2018-01-11T00:50:02.098Z,38.27
2018-01-11T00:52:29.498Z,37.13
2018-01-11T00:54:56.993Z,39.87
2018-01-11T00:57:24.394Z,30.23
2018-01-11T00:59:51.791Z,37.87
2018-01-11T01:02:19.199Z,38.20
2018-01-11T01:04:46.589Z,35.37
2018-01-11T01:07:13.989Z,40.77
2018-01-11T01:09:41.378Z,39.07
2018-01-11T01:12:08.787Z,38.23
2018-01-11T01:14:36.179Z,32.67
2018-01-11T01:17:03.593Z,33.00
2018-01-11T01:19:30.982Z,32.80
2018-01-11T01:21:58.378Z,32.40
2018-01-11T01:24:25.766Z,34.70
2018-01-11T01:26:53.194Z,25.80
2018-01-11T01:29:20.586Z,31.13
2018-01-11T01:31:48.058Z,31.37
2018-01-11T01:34:15.479Z,32.57
2018-01-11T01:36:42.886Z,29.33
2018-01-11T01:39:10.278Z,34.30
2018-01-11T01:41:37.693Z,31.40
2018-01-11T01:44:05.082Z,31.60
2018-01-11T01:46:32.487Z,34.93
2018-01-11T01:48:59.879Z,33.90
2018-01-11T01:51:27.276Z,37.33
2018-01-11T01:53:54.671Z,32.53
2018-01-11T01:56:22.088Z,39.10
2018-01-11T01:58:49.502Z,31.23
2018-01-11T02:01:16.912Z,31.03
2018-01-11T02:03:44.307Z,39.30
2018-01-11T02:06:11.706Z,29.33
2018-01-11T02:08:39.106Z,32.40
2018-01-11T02:11:06.507Z,27.17
2018-01-11T02:13:33.934Z,29.00
2018-01-11T02:16:01.366Z,25.67
2018-01-11T02:18:28.746Z,26.90
2018-01-11T02:20:56.142Z,34.97
2018-01-11T02:23:23.610Z,30.93
2018-01-11T02:25:51.049Z,29.53
2018-01-11T02:28:18.833Z,29.40
2018-01-11T02:30:46.237Z,28.63
2018-01-11T02:33:13.655Z,27.63
2018-01-11T02:35:41.055Z,29.07
2018-01-11T02:38:08.471Z,26.67
2018-01-11T02:40:35.863Z,32.47
2018-01-11T02:43:03.273Z,95.50
2018-01-11T02:45:30.657Z,30.83
2018-01-11T02:47:58.122Z,21.93
2018-01-11T02:50:25.524Z,30.80
2018-01-11T02:52:52.917Z,29.30
2018-01-11T02:55:20.320Z,25.70
2018-01-11T02:57:47.713Z,27.13
2018-01-11T03:00:15.109Z,28.60
2018-01-11T03:02:42.506Z,24.17
2018-01-11T03:05:09.901Z,28.77
2018-01-11T03:07:37.298Z,28.00
2018-01-11T03:10:04.695Z,31.13
2018-01-11T03:12:32.097Z,30.40
2018-01-11T03:14:59.489Z,25.73
2018-01-11T03:17:26.931Z,37.93
2018-01-11T03:19:54.318Z,32.87
2018-01-11T03:22:21.723Z,34.77
2018-01-11T03:24:49.125Z,32.60
2018-01-11T03:27:16.518Z,24.63
2018-01-11T03:29:43.916Z,29.03
2018-01-11T03:32:11.984Z,26.53
2018-01-11T03:34:39.374Z,28.30
2018-01-11T03:37:06.777Z,31.73
2018-01-11T03:39:34.173Z,26.63
2018-01-11T03:42:01.578Z,28.73
2018-01-11T03:44:28.975Z,31.20
2018-01-11T03:46:56.369Z,30.50
2018-01-11T03:49:23.774Z,31.63
2018-01-11T03:51:51.162Z,39.17
2018-01-11T03:54:18.554Z,35.00
2018-01-11T03:56:45.978Z,34.40
2018-01-11T03:59:13.393Z,30.57
2018-01-11T04:01:40.790Z,35.78
2018-01-11T04:04:08.246Z,28.10
2018-01-11T04:06:35.654Z,25.30
2018-01-11T04:09:03.055Z,27.67
2018-01-11T04:11:30.470Z,26.70
2018-01-11T04:13:57.874Z,23.43
2018-01-11T04:16:25.324Z,31.23
2018-01-11T04:18:52.690Z,36.80
2018-01-11T04:21:20.115Z,38.97
2018-01-11T04:23:47.506Z,35.90
2018-01-11T04:26:14.932Z,31.73
2018-01-11T04:28:42.322Z,37.90
2018-01-11T04:31:09.724Z,33.10
2018-01-11T04:33:37.180Z,29.73
2018-01-11T04:36:05.542Z,31.70
2018-01-11T04:38:32.958Z,32.80
2018-01-11T04:41:01.059Z,28.23
2018-01-11T04:43:28.463Z,25.53
2018-01-11T04:45:55.878Z,32.27
2018-01-11T04:48:23.292Z,27.00
2018-01-11T04:50:50.688Z,30.37
2018-01-11T04:53:18.095Z,28.90
2018-01-11T04:55:45.540Z,28.27
2018-01-11T04:58:12.922Z,30.30
2018-01-11T05:00:46.050Z,23.70
2018-01-11T05:03:13.543Z,24.03
2018-01-11T05:05:40.936Z,25.70
2018-01-11T05:08:08.330Z,29.53
2018-01-11T05:10:35.742Z,47.57
2018-01-11T05:13:03.151Z,35.80
2018-01-11T05:15:30.542Z,26.63
2018-01-11T05:17:57.947Z,28.73
2018-01-11T05:20:25.351Z,24.20
2018-01-11T05:22:52.762Z,29.93
2018-01-11T05:25:20.167Z,25.13
2018-01-11T05:27:47.558Z,23.50
2018-01-11T05:30:15.669Z,28.30
2018-01-11T05:32:43.051Z,31.67
2018-01-11T05:35:10.450Z,25.30
2018-01-11T05:37:37.855Z,23.00
2018-01-11T05:40:05.264Z,23.17
2018-01-11T05:42:32.666Z,26.27
2018-01-11T05:45:00.073Z,24.20
2018-01-11T05:47:27.467Z,27.03
2018-01-11T05:49:54.856Z,28.63
2018-01-11T05:52:22.299Z,29.30
2018-01-11T05:54:49.695Z,31.00
2018-01-11T05:57:17.095Z,26.60
2018-01-11T05:59:44.490Z,24.97
2018-01-11T06:02:11.918Z,25.50
2018-01-11T06:04:39.338Z,26.50
2018-01-11T06:07:06.751Z,32.60
2018-01-11T06:09:34.144Z,24.20
2018-01-11T06:12:01.548Z,26.03
2018-01-11T06:14:28.950Z,24.20
2018-01-11T06:16:56.359Z,25.80
2018-01-11T06:19:23.762Z,22.47
2018-01-11T06:21:51.158Z,24.40
2018-01-11T06:24:18.558Z,41.60
2018-01-11T06:26:45.946Z,25.00
2018-01-11T06:29:13.368Z,22.93
2018-01-11T06:31:40.751Z,28.77
2018-01-11T06:34:08.156Z,30.37
2018-01-11T06:36:35.637Z,27.37
2018-01-11T06:39:03.044Z,23.70
2018-01-11T06:41:30.430Z,26.30
2018-01-11T06:43:57.834Z,28.70
2018-01-11T06:46:25.223Z,28.90
2018-01-11T06:48:52.635Z,23.63
2018-01-11T06:51:20.034Z,27.33
2018-01-11T06:53:47.422Z,26.50
2018-01-11T06:56:14.815Z,28.67
2018-01-11T06:58:42.262Z,36.70
2018-01-11T07:01:09.658Z,34.90
2018-01-11T07:03:37.058Z,29.00
2018-01-11T07:06:04.442Z,29.23
2018-01-11T07:08:32.206Z,25.83
2018-01-11T07:10:59.603Z,29.20
2018-01-11T07:13:27.003Z,27.97
2018-01-11T07:15:54.396Z,31.17
2018-01-11T07:18:21.794Z,38.60
2018-01-11T07:20:49.209Z,26.40
2018-01-11T07:23:16.610Z,34.33
2018-01-11T07:25:44.011Z,27.47
2018-01-11T07:28:11.409Z,23.37
2018-01-11T07:30:38.804Z,24.33
2018-01-11T07:33:06.390Z,32.63
2018-01-11T07:35:33.791Z,22.90
2018-01-11T07:38:01.191Z,23.53
2018-01-11T07:40:28.590Z,25.93
2018-01-11T07:42:55.993Z,33.47
2018-01-11T07:45:23.383Z,25.53
2018-01-11T07:47:50.784Z,24.20
2018-01-11T07:50:18.173Z,33.97
2018-01-11T07:52:45.585Z,26.50
2018-01-11T07:55:12.988Z,25.87
2018-01-11T07:57:40.382Z,30.40
2018-01-11T08:00:07.780Z,27.73
2018-01-11T08:02:35.177Z,28.73
2018-01-11T08:05:02.567Z,28.17
2018-01-11T08:07:29.971Z,25.00
2018-01-11T08:09:57.358Z,25.90
2018-01-11T08:12:25.407Z,35.40
2018-01-11T08:14:52.802Z,31.30
2018-01-11T08:17:20.190Z,29.37
2018-01-11T08:19:47.599Z,30.90
2018-01-11T08:22:15.159Z,23.17
2018-01-11T08:24:42.593Z,23.80
2018-01-11T08:27:09.934Z,24.73
2018-01-11T08:29:37.391Z,22.23
2018-01-11T08:32:04.787Z,22.07
2018-01-11T08:34:32.203Z,20.80
2018-01-11T08:36:59.594Z,25.30
2018-01-11T08:39:27.026Z,24.27
2018-01-11T08:41:54.416Z,18.90
2018-01-11T08:44:21.840Z,23.37
2018-01-11T08:46:49.280Z,27.33
2018-01-11T08:49:16.779Z,22.60
2018-01-11T08:51:44.175Z,22.07
2018-01-11T08:54:11.586Z,27.43
2018-01-11T08:56:38.978Z,23.70
2018-01-11T08:59:06.405Z,19.43
2018-01-11T09:01:33.815Z,22.55
2018-01-11T09:04:01.206Z,21.50
2018-01-11T09:06:28.598Z,18.33
2018-01-11T09:08:56.026Z,22.03
2018-01-11T09:11:23.399Z,16.90
2018-01-11T09:13:50.798Z,23.57
2018-01-11T09:16:18.203Z,23.13
2018-01-11T09:18:45.594Z,27.33
2018-01-11T09:21:12.992Z,25.53
2018-01-11T09:23:40.387Z,22.93
2018-01-11T09:26:07.784Z,22.80
2018-01-11T09:28:35.179Z,27.47
2018-01-11T09:31:02.579Z,25.15
2018-01-11T09:33:29.984Z,26.60
2018-01-11T09:35:57.367Z,28.70
2018-01-11T09:38:24.771Z,22.40
2018-01-11T09:40:52.167Z,23.93
2018-01-11T09:43:19.559Z,28.10
2018-01-11T09:45:46.951Z,28.50
2018-01-11T09:48:14.347Z,23.90
2018-01-11T09:50:41.739Z,22.70
2018-01-11T09:53:09.145Z,20.47
2018-01-11T09:55:36.531Z,21.50
2018-01-11T09:58:03.934Z,19.60
2018-01-11T10:00:31.326Z,23.70
2018-01-11T10:02:58.722Z,20.67
2018-01-11T10:05:26.136Z,17.17
2018-01-11T10:07:53.526Z,18.10
2018-01-11T10:10:20.922Z,17.93
2018-01-11T10:12:48.315Z,16.77
2018-01-11T10:15:15.719Z,15.37
2018-01-11T10:17:43.162Z,18.67
2018-01-11T10:20:10.551Z,19.20
2018-01-11T10:22:37.950Z,18.80
2018-01-11T10:25:05.351Z,14.77
2018-01-11T10:27:32.750Z,17.80
2018-01-11T10:30:00.161Z,16.73
2018-01-11T10:32:27.579Z,15.67
2018-01-11T10:34:54.984Z,16.20
2018-01-11T10:37:22.375Z,19.30
2018-01-11T10:39:49.775Z,16.87
2018-01-11T10:42:17.189Z,16.00
2018-01-11T10:44:44.598Z,17.57
2018-01-11T10:47:11.987Z,19.00
2018-01-11T10:49:39.386Z,25.47
2018-01-11T10:52:06.784Z,21.67
2018-01-11T10:54:34.182Z,33.93
2018-01-11T10:57:01.578Z,17.30
2018-01-11T10:59:28.983Z,21.50
2018-01-11T11:02:02.117Z,16.07
2018-01-11T11:04:29.518Z,17.00
2018-01-11T11:06:56.948Z,20.30
2018-01-11T11:09:24.355Z,17.30
2018-01-11T11:11:51.758Z,20.30
2018-01-11T11:14:19.217Z,19.80
2018-01-11T11:16:46.614Z,18.53
2018-01-11T11:19:14.021Z,16.17
2018-01-11T11:21:41.410Z,16.60
2018-01-11T11:24:08.831Z,20.43
2018-01-11T11:26:36.226Z,18.70
2018-01-11T11:29:03.648Z,19.10
2018-01-11T11:31:31.094Z,18.93
2018-01-11T11:33:58.547Z,16.93
2018-01-11T11:36:25.952Z,18.83
2018-01-11T11:38:53.345Z,21.50
2018-01-11T11:41:20.735Z,20.33
2018-01-11T11:43:48.134Z,27.10
2018-01-11T11:46:15.548Z,23.43
2018-01-11T11:48:42.964Z,23.10
2018-01-11T11:51:10.355Z,22.27
2018-01-11T11:53:37.751Z,25.23
2018-01-11T11:56:05.150Z,20.87
2018-01-11T11:58:32.542Z,23.50
2018-01-11T12:00:59.947Z,24.17
2018-01-11T12:03:27.347Z,21.87
2018-01-11T12:05:54.775Z,23.47
2018-01-11T12:08:22.175Z,22.47
2018-01-11T12:10:49.571Z,20.10
2018-01-11T12:13:16.954Z,24.30
2018-01-11T12:15:44.363Z,20.80
2018-01-11T12:18:11.755Z,18.07
2018-01-11T12:20:39.150Z,18.40
2018-01-11T12:23:06.538Z,21.13
2018-01-11T12:25:33.940Z,24.00
2018-01-11T12:28:01.329Z,24.07
2018-01-11T12:30:28.739Z,21.65
2018-01-11T12:32:56.185Z,24.73
2018-01-11T12:35:23.587Z,23.73
2018-01-11T12:37:50.978Z,23.70
2018-01-11T12:40:18.379Z,20.90
2018-01-11T12:42:45.799Z,25.50
2018-01-11T12:45:13.199Z,27.90
2018-01-11T12:47:40.590Z,24.73
2018-01-11T12:50:08.005Z,34.43
2018-01-11T12:52:35.398Z,31.67
2018-01-11T12:55:02.802Z,29.60
2018-01-11T12:57:30.296Z,27.67
2018-01-11T12:59:57.687Z,31.67
2018-01-11T13:02:25.087Z,30.77
2018-01-11T13:04:52.495Z,33.03
2018-01-11T13:07:19.888Z,35.80
2018-01-11T13:09:47.302Z,31.17
2018-01-11T13:12:14.715Z,34.93
2018-01-11T13:14:42.123Z,40.13
2018-01-11T13:17:09.514Z,36.50
2018-01-11T13:19:36.910Z,37.87
2018-01-11T13:22:04.334Z,42.20
2018-01-11T13:24:31.731Z,41.53
2018-01-11T13:26:59.126Z,43.30
2018-01-11T13:29:26.524Z,51.93
2018-01-11T13:31:53.943Z,50.27
2018-01-11T13:34:21.384Z,49.57
2018-01-11T13:36:48.792Z,43.57
2018-01-11T13:39:16.218Z,45.67
2018-01-11T13:41:43.590Z,41.17
2018-01-11T13:44:10.995Z,42.43
2018-01-11T13:46:38.388Z,43.80
2018-01-11T13:49:05.794Z,40.43
2018-01-11T13:51:33.208Z,41.10
2018-01-11T13:54:00.599Z,43.67
2018-01-11T13:56:27.999Z,40.50
2018-01-11T13:58:55.399Z,40.67
2018-01-11T14:01:22.815Z,40.85
2018-01-11T14:03:50.211Z,36.93
2018-01-11T14:06:17.682Z,41.30
2018-01-11T14:08:45.075Z,36.83
2018-01-11T14:11:12.491Z,41.27
2018-01-11T14:13:39.882Z,35.97
2018-01-11T14:16:07.288Z,41.83
2018-01-11T14:18:34.711Z,34.17
2018-01-11T14:21:02.128Z,32.80
2018-01-11T14:23:29.503Z,37.60
2018-01-11T14:25:56.901Z,40.40
2018-01-11T14:28:24.294Z,36.30
2018-01-11T14:30:51.699Z,34.70
2018-01-11T14:33:19.190Z,35.50
2018-01-11T14:35:46.650Z,37.47
2018-01-11T14:38:14.040Z,38.43
2018-01-11T14:40:41.430Z,39.40
2018-01-11T14:43:08.831Z,43.70
2018-01-11T14:45:36.251Z,38.10
2018-01-11T14:48:03.636Z,40.10
2018-01-11T14:50:31.151Z,45.57
2018-01-11T14:52:58.491Z,44.10
2018-01-11T14:55:25.896Z,48.67
2018-01-11T14:57:53.295Z,40.93
2018-01-11T15:00:20.698Z,38.85
2018-01-11T15:02:48.099Z,37.87
2018-01-11T15:05:15.543Z,36.57
2018-01-11T15:07:42.939Z,38.17
2018-01-11T15:10:10.403Z,37.33
2018-01-11T15:12:37.751Z,35.03
2018-01-11T15:15:05.155Z,33.33
2018-01-11T15:17:32.556Z,35.13
2018-01-11T15:20:00.054Z,31.03
2018-01-11T15:22:27.503Z,37.43
2018-01-11T15:24:54.898Z,36.40
2018-01-11T15:27:22.299Z,33.73
2018-01-11T15:29:49.711Z,31.63
2018-01-11T15:32:17.102Z,39.73
2018-01-11T15:34:44.539Z,38.00
2018-01-11T15:37:11.947Z,38.67
2018-01-11T15:39:39.343Z,35.27
2018-01-11T15:42:06.846Z,40.60
2018-01-11T15:44:34.290Z,34.43
2018-01-11T15:47:01.693Z,34.53
2018-01-11T15:49:29.084Z,37.87
2018-01-11T15:51:56.514Z,44.77
2018-01-11T15:54:23.891Z,40.00
2018-01-11T15:56:51.309Z,36.23
2018-01-11T15:59:18.693Z,43.87
2018-01-11T16:01:46.132Z,42.77
2018-01-11T16:04:13.498Z,37.47
2018-01-11T16:06:40.898Z,34.57
2018-01-11T16:09:08.295Z,40.97
2018-01-11T16:11:35.691Z,44.07
2018-01-11T16:14:03.085Z,43.63
2018-01-11T16:16:30.483Z,43.70
2018-01-11T16:18:57.882Z,51.60
2018-01-11T16:21:25.430Z,39.43
2018-01-11T16:23:52.931Z,43.70
2018-01-11T16:26:20.275Z,46.43
2018-01-11T16:28:47.666Z,44.57
2018-01-11T16:31:15.070Z,41.33
2018-01-11T16:33:42.466Z,41.30
2018-01-11T16:36:09.881Z,40.00
2018-01-11T16:38:37.287Z,37.97
2018-01-11T16:41:04.671Z,33.50
2018-01-11T16:43:32.100Z,42.27
2018-01-11T16:45:59.506Z,37.63
2018-01-11T16:48:26.906Z,34.50
2018-01-11T16:50:54.299Z,33.43
2018-01-11T16:53:21.693Z,34.20
2018-01-11T16:55:49.099Z,30.67
2018-01-11T16:58:16.501Z,32.23
2018-01-11T17:00:43.978Z,34.20
2018-01-11T17:03:11.392Z,32.80
2018-01-11T17:05:38.832Z,31.63
2018-01-11T17:08:06.231Z,31.73
2018-01-11T17:10:33.674Z,35.20
2018-01-11T17:13:01.082Z,35.27
2018-01-11T17:15:28.495Z,38.03
2018-01-11T17:17:55.891Z,34.30
2018-01-11T17:20:23.294Z,39.63
2018-01-11T17:22:50.691Z,33.70
2018-01-11T17:25:18.099Z,32.07
2018-01-11T17:27:45.497Z,35.77
2018-01-11T17:30:12.889Z,35.67
2018-01-11T17:32:40.297Z,34.07
2018-01-11T17:35:07.674Z,33.73
2018-01-11T17:37:35.076Z,33.20
2018-01-11T17:40:02.467Z,31.30
2018-01-11T17:42:29.868Z,33.40
2018-01-11T17:44:57.265Z,37.00
2018-01-11T17:47:24.662Z,31.93
2018-01-11T17:49:52.146Z,34.63
2018-01-11T17:52:19.556Z,36.40
2018-01-11T17:54:46.958Z,35.97
2018-01-11T17:57:14.354Z,33.23
2018-01-11T17:59:41.744Z,34.57
2018-01-11T18:02:09.139Z,32.90
2018-01-11T18:04:36.546Z,33.00
2018-01-11T18:07:03.939Z,36.67
2018-01-11T18:09:31.346Z,33.27
2018-01-11T18:11:58.747Z,31.00
2018-01-11T18:14:26.162Z,35.30
2018-01-11T18:16:53.579Z,27.90
2018-01-11T18:19:20.979Z,27.00
2018-01-11T18:21:48.370Z,36.20
2018-01-11T18:24:15.768Z,30.10
2018-01-11T18:26:43.206Z,33.60
2018-01-11T18:29:11.430Z,33.60
2018-01-11T18:31:38.835Z,35.03
2018-01-11T18:34:06.240Z,34.90
2018-01-11T18:36:33.635Z,32.20
2018-01-11T18:39:01.087Z,35.87
2018-01-11T18:41:28.650Z,31.47
2018-01-11T18:43:56.232Z,35.83
2018-01-11T18:46:24.105Z,44.13
2018-01-11T18:48:51.675Z,35.03
2018-01-11T18:51:19.149Z,33.80
2018-01-11T18:53:46.695Z,36.40
2018-01-11T18:56:14.149Z,31.63
2018-01-11T18:58:41.675Z,33.57
2018-01-11T19:01:09.076Z,45.30
2018-01-11T19:03:36.475Z,78.00
2018-01-11T19:06:03.875Z,53.23
2018-01-11T19:08:31.266Z,53.60
2018-01-11T19:10:58.667Z,49.67
2018-01-11T19:13:26.072Z,31.40
2018-01-11T19:15:53.467Z,31.97
2018-01-11T19:18:20.891Z,31.27
2018-01-11T19:20:48.292Z,31.17
2018-01-11T19:23:15.682Z,31.53
2018-01-11T19:25:43.078Z,36.20
2018-01-11T19:28:10.475Z,33.10
2018-01-11T19:30:38.470Z,31.87
2018-01-11T19:33:05.857Z,32.00
2018-01-11T19:35:33.259Z,36.00
2018-01-11T19:38:00.699Z,33.97
2018-01-11T19:40:28.103Z,34.27
2018-01-11T19:42:55.500Z,49.10
2018-01-11T19:45:22.906Z,34.53
2018-01-11T19:47:50.295Z,33.60
2018-01-11T19:50:17.762Z,37.00
2018-01-11T19:52:45.162Z,34.63
2018-01-11T19:55:12.556Z,32.63
2018-01-11T19:57:39.955Z,37.20
2018-01-11T20:00:07.355Z,34.23
2018-01-11T20:02:34.840Z,31.13
2018-01-11T20:05:02.260Z,32.33
2018-01-11T20:07:29.658Z,32.97
2018-01-11T20:09:57.055Z,31.03
2018-01-11T20:12:24.571Z,25.80
2018-01-11T20:14:51.975Z,30.03
2018-01-11T20:17:19.391Z,32.30
2018-01-11T20:19:46.802Z,34.23
2018-01-11T20:22:14.215Z,30.50
2018-01-11T20:24:41.607Z,30.07
2018-01-11T20:27:09.014Z,29.53
2018-01-11T20:29:36.452Z,31.20
2018-01-11T20:32:03.854Z,28.97
2018-01-11T20:34:31.246Z,26.63
2018-01-11T20:36:58.659Z,29.83
2018-01-11T20:39:26.042Z,32.90
2018-01-11T20:41:53.470Z,30.70
2018-01-11T20:44:20.858Z,28.97
2018-01-11T20:46:48.258Z,30.27
2018-01-11T20:49:15.782Z,34.30
2018-01-11T20:51:43.202Z,36.10
2018-01-11T20:54:10.578Z,31.70
2018-01-11T20:56:37.970Z,44.10
2018-01-11T20:59:05.366Z,38.50
2018-01-11T21:01:32.845Z,40.58
2018-01-11T21:04:00.290Z,39.07
2018-01-11T21:06:27.931Z,49.00
2018-01-11T21:08:55.418Z,45.27
2018-01-11T21:11:22.835Z,45.57
2018-01-11T21:13:50.247Z,41.90
2018-01-11T21:16:17.650Z,45.50
2018-01-11T21:18:45.046Z,44.27
2018-01-11T21:21:12.442Z,52.60
2018-01-11T21:23:39.839Z,47.97
2018-01-11T21:26:07.243Z,47.53
2018-01-11T21:28:34.663Z,48.70
2018-01-11T21:31:02.111Z,51.87
2018-01-11T21:33:29.543Z,43.33
2018-01-11T21:35:56.935Z,47.80
2018-01-11T21:38:24.348Z,52.77
2018-01-11T21:40:51.743Z,51.17
2018-01-11T21:43:19.231Z,55.63
2018-01-11T21:45:46.622Z,52.30
2018-01-11T21:48:14.031Z,54.97
2018-01-11T21:50:41.519Z,52.43
2018-01-11T21:53:08.914Z,62.63
2018-01-11T21:55:36.315Z,52.70
2018-01-11T21:58:03.723Z,66.93
2018-01-11T22:00:31.152Z,56.53
2018-01-11T22:02:58.562Z,52.87
2018-01-11T22:05:25.952Z,58.57
2018-01-11T22:07:53.357Z,67.90
2018-01-11T22:10:20.746Z,67.97
2018-01-11T22:12:48.143Z,78.33
2018-01-11T22:15:15.543Z,49.63
2018-01-11T22:17:42.935Z,61.80
2018-01-11T22:20:10.371Z,60.80
2018-01-11T22:22:37.985Z,60.70
2018-01-11T22:25:05.528Z,82.60
2018-01-11T22:27:32.923Z,59.00
2018-01-11T22:30:00.415Z,81.57
2018-01-11T22:32:27.802Z,87.57
2018-01-11T22:34:55.222Z,90.47
2018-01-11T22:37:22.615Z,97.57
2018-01-11T22:39:50.023Z,82.77
2018-01-11T22:42:17.423Z,106.73
2018-01-11T22:44:44.863Z,107.53
2018-01-11T22:47:12.261Z,96.10
2018-01-11T22:49:39.675Z,95.67
2018-01-11T22:52:07.075Z,89.40
2018-01-11T22:54:34.538Z,122.53
2018-01-11T22:57:01.943Z,106.07
2018-01-11T22:59:29.335Z,87.33
2018-01-11T23:01:56.742Z,109.27
2018-01-11T23:04:24.142Z,80.57
2018-01-11T23:06:51.556Z,141.23
2018-01-11T23:09:18.955Z,223.00
2018-01-11T23:11:46.367Z,215.20
2018-01-11T23:14:13.763Z,70.03
2018-01-11T23:16:41.188Z,80.60
2018-01-11T23:19:08.575Z,107.47
2018-01-11T23:21:35.978Z,126.67
2018-01-11T23:24:03.370Z,103.87
2018-01-11T23:26:30.770Z,84.30
2018-01-11T23:28:58.158Z,90.43
2018-01-11T23:31:25.781Z,87.33
2018-01-11T23:33:53.162Z,59.50
2018-01-11T23:36:20.560Z,46.63
2018-01-11T23:38:47.959Z,67.37
2018-01-11T23:41:15.358Z,79.40
2018-01-11T23:43:42.756Z,54.50
2018-01-11T23:46:10.199Z,51.47
2018-01-11T23:48:37.590Z,49.40
2018-01-11T23:51:04.983Z,69.00
2018-01-11T23:53:32.471Z,70.80
2018-01-11T23:55:59.871Z,60.00
2018-01-11T23:58:27.280Z,45.07
